createdAt,value
2022-07-30T00:03:01.650Z,100601.44
2022-07-30T00:06:03.538Z,100600.78
2022-07-30T00:09:05.301Z,100606.31
2022-07-30T00:12:08.480Z,100607.34
2022-07-30T00:15:10.331Z,100606.75
2022-07-30T00:18:12.548Z,100609.47
2022-07-30T00:21:20.244Z,100601.03
2022-07-30T00:24:36.499Z,100594.94
2022-07-30T00:27:38.243Z,100596.34
2022-07-30T00:30:40.780Z,100589.34
2022-07-30T00:33:42.908Z,100599.03
2022-07-30T00:36:44.634Z,100589.03
2022-07-30T00:39:46.461Z,100590.22
2022-07-30T00:42:48.577Z,100579.69
2022-07-30T00:45:50.891Z,100580.38
2022-07-30T00:48:52.656Z,100579.94
2022-07-30T00:51:54.935Z,100577.22
2022-07-30T00:54:56.720Z,100566.84
2022-07-30T00:57:58.461Z,100566.00
2022-07-30T01:01:00.935Z,100580.53
2022-07-30T01:04:03.660Z,100572.88
2022-07-30T01:07:05.881Z,100573.00
2022-07-30T01:10:11.172Z,100576.56
2022-07-30T01:13:13.089Z,100575.72
2022-07-30T01:16:15.061Z,100571.16
2022-07-30T01:19:43.145Z,100575.59
2022-07-30T01:22:47.764Z,100570.16
2022-07-30T01:26:02.099Z,100570.59
2022-07-30T01:29:04.909Z,100576.03
2022-07-30T01:32:08.970Z,100581.59
2022-07-30T01:35:12.850Z,100577.59
2022-07-30T01:38:17.223Z,100582.59
2022-07-30T01:41:19.955Z,100587.00
2022-07-30T01:44:25.859Z,100588.00
2022-07-30T01:47:28.786Z,100589.00
2022-07-30T01:50:32.594Z,100592.00
2022-07-30T01:53:39.003Z,100598.28
2022-07-30T01:56:42.546Z,100600.13
2022-07-30T01:59:50.291Z,100602.84
2022-07-30T02:02:54.427Z,100604.41
2022-07-30T02:06:01.238Z,100604.41
2022-07-30T02:09:07.035Z,100606.97
2022-07-30T02:12:29.697Z,100605.25
2022-07-30T02:15:38.899Z,100615.09
2022-07-30T02:18:43.585Z,100605.97
2022-07-30T02:21:56.554Z,100604.66
2022-07-30T02:25:01.657Z,100603.25
2022-07-30T02:28:09.650Z,100613.94
2022-07-30T02:31:17.388Z,100615.09
2022-07-30T02:34:22.874Z,100618.53
2022-07-30T02:37:41.489Z,100615.81
2022-07-30T02:40:46.604Z,100620.53
2022-07-30T02:43:50.082Z,100622.22
2022-07-30T02:46:55.154Z,100625.91
2022-07-30T02:50:17.994Z,100631.47
2022-07-30T02:53:22.497Z,100625.63
2022-07-30T02:56:26.299Z,100637.63
2022-07-30T02:59:30.602Z,100641.34
2022-07-30T03:02:34.135Z,100643.34
2022-07-30T03:05:40.967Z,100652.75
2022-07-30T03:08:44.869Z,100653.06
2022-07-30T03:11:48.700Z,100653.06
2022-07-30T03:14:51.839Z,100656.59
2022-07-30T03:17:55.681Z,100654.91
2022-07-30T03:21:00.706Z,100651.34
2022-07-30T03:24:05.090Z,100653.66
2022-07-30T03:27:09.237Z,100658.91
2022-07-30T03:30:12.218Z,100662.31
2022-07-30T03:33:15.811Z,100666.31
2022-07-30T03:36:18.455Z,100665.16
2022-07-30T03:39:22.542Z,100664.50
2022-07-30T03:42:25.629Z,100677.16
2022-07-30T03:45:28.028Z,100672.31
2022-07-30T03:48:38.596Z,100673.88
2022-07-30T03:51:41.991Z,100675.56
2022-07-30T03:54:44.431Z,100679.72
2022-07-30T03:58:11.801Z,100675.31
2022-07-30T04:01:13.702Z,100672.59
2022-07-30T04:04:16.621Z,100676.28
2022-07-30T04:07:18.687Z,100673.28
2022-07-30T04:10:20.436Z,100682.72
2022-07-30T04:13:34.281Z,100692.81
2022-07-30T04:16:53.011Z,100686.00
2022-07-30T04:20:02.816Z,100703.09
2022-07-30T04:23:05.296Z,100712.53
2022-07-30T04:26:08.706Z,100711.06
2022-07-30T04:29:13.497Z,100724.47
2022-07-30T04:32:19.413Z,100723.19
2022-07-30T04:35:51.216Z,100734.56
2022-07-30T04:39:11.144Z,100741.97
2022-07-30T04:42:13.471Z,100756.66
2022-07-30T04:45:20.151Z,100752.53
2022-07-30T04:48:42.240Z,100750.41
2022-07-30T04:51:51.802Z,100750.09
2022-07-30T04:54:57.875Z,100752.69
2022-07-30T04:58:02.019Z,100751.66
2022-07-30T05:01:09.096Z,100756.38
2022-07-30T05:04:12.611Z,100764.78
2022-07-30T05:07:15.018Z,100755.22
2022-07-30T05:10:18.112Z,100763.09
2022-07-30T05:13:19.882Z,100755.94
2022-07-30T05:16:24.908Z,100759.66
2022-07-30T05:19:29.416Z,100764.91
2022-07-30T05:22:31.591Z,100762.09
2022-07-30T05:25:33.339Z,100755.22
2022-07-30T05:28:53.961Z,100750.81
2022-07-30T05:32:03.190Z,100747.72
2022-07-30T05:35:09.462Z,100741.28
2022-07-30T05:38:11.549Z,100740.44
2022-07-30T05:41:33.286Z,100733.88
2022-07-30T05:44:38.111Z,100732.03
2022-07-30T05:47:39.718Z,100727.63
2022-07-30T05:50:41.471Z,100722.91
2022-07-30T05:53:43.236Z,100723.75
2022-07-30T05:56:44.872Z,100724.91
2022-07-30T05:59:52.217Z,100722.03
2022-07-30T06:02:58.515Z,100725.63
2022-07-30T06:06:00.487Z,100721.78
2022-07-30T06:09:02.147Z,100717.91
2022-07-30T06:12:05.154Z,100712.19
2022-07-30T06:15:08.020Z,100711.06
2022-07-30T06:18:12.610Z,100699.22
2022-07-30T06:21:25.303Z,100712.31
2022-07-30T06:24:48.155Z,100711.03
2022-07-30T06:27:53.684Z,100705.44
2022-07-30T06:30:55.383Z,100708.75
2022-07-30T06:34:00.314Z,100695.72
2022-07-30T06:37:07.296Z,100703.88
2022-07-30T06:40:09.950Z,100704.56
2022-07-30T06:43:34.489Z,100703.00
2022-07-30T06:46:54.868Z,100705.53
2022-07-30T06:50:02.045Z,100716.63
2022-07-30T06:53:05.615Z,100717.19
2022-07-30T06:56:27.241Z,100717.03
2022-07-30T06:59:33.421Z,100719.44
2022-07-30T07:03:01.494Z,100718.69
2022-07-30T07:06:12.836Z,100715.94
2022-07-30T07:09:14.533Z,100719.91
2022-07-30T07:12:22.742Z,100710.63
2022-07-30T07:15:36.998Z,100720.31
2022-07-30T07:18:42.719Z,100725.13
2022-07-30T07:21:46.199Z,100726.09
2022-07-30T07:24:48.057Z,100725.59
2022-07-30T07:28:11.038Z,100721.13
2022-07-30T07:32:06.358Z,100719.88
2022-07-30T07:34:37.244Z,100723.22
2022-07-30T07:37:40.497Z,100729.59
2022-07-30T07:40:43.598Z,100728.31
2022-07-30T07:43:45.280Z,100725.91
2022-07-30T07:46:53.351Z,100730.59
2022-07-30T07:49:56.885Z,100731.28
2022-07-30T07:52:58.844Z,100728.38
2022-07-30T07:56:00.601Z,100727.44
2022-07-30T07:59:02.350Z,100727.06
2022-07-30T08:02:05.932Z,100726.81
2022-07-30T08:05:24.294Z,100726.25
2022-07-30T08:08:37.050Z,100727.78
2022-07-30T08:12:08.154Z,100718.41
2022-07-30T08:18:52.821Z,100716.88
2022-07-30T08:22:17.887Z,100709.41
2022-07-30T08:25:24.145Z,100702.22
2022-07-30T08:28:35.975Z,100697.81
2022-07-30T08:31:39.149Z,100694.06
2022-07-30T08:34:41.090Z,100692.56
2022-07-30T08:37:43.850Z,100693.94
2022-07-30T08:40:46.140Z,100688.16
2022-07-30T08:43:51.272Z,100686.63
2022-07-30T08:46:59.363Z,100682.25
2022-07-30T08:50:20.499Z,100690.97
2022-07-30T08:53:51.444Z,100688.75
2022-07-30T08:56:54.877Z,100691.81
2022-07-30T09:00:01.882Z,100702.06
2022-07-30T09:03:03.767Z,100701.56
2022-07-30T09:06:05.874Z,100710.72
2022-07-30T09:09:09.098Z,100715.88
2022-07-30T09:12:30.186Z,100713.63
2022-07-30T09:15:33.608Z,100717.13
2022-07-30T09:18:38.505Z,100725.25
2022-07-30T09:21:42.780Z,100728.44
2022-07-30T09:24:57.281Z,100735.25
2022-07-30T09:27:59.066Z,100736.31
2022-07-30T09:31:20.931Z,100732.09
2022-07-30T09:34:41.030Z,100735.25
2022-07-30T09:37:42.893Z,100739.22
2022-07-30T09:41:39.822Z,100740.72
2022-07-30T09:44:47.143Z,100747.50
2022-07-30T09:47:49.418Z,100743.91
2022-07-30T09:50:54.892Z,100750.97
2022-07-30T09:54:00.186Z,100745.75
2022-07-30T09:57:22.866Z,100752.91
2022-07-30T10:00:32.760Z,100750.44
2022-07-30T10:03:48.418Z,100743.50
2022-07-30T10:07:24.870Z,100748.00
2022-07-30T10:10:31.604Z,100751.91
2022-07-30T10:13:35.441Z,100758.31
2022-07-30T10:16:37.805Z,100748.66
2022-07-30T10:19:42.011Z,100755.59
2022-07-30T10:23:15.662Z,100753.44
2022-07-30T10:26:36.825Z,100753.47
2022-07-30T10:30:05.806Z,100751.72
2022-07-30T10:33:08.684Z,100757.59
2022-07-30T10:36:31.581Z,100754.34
2022-07-30T10:39:47.150Z,100755.19
2022-07-30T10:43:31.587Z,100750.03
2022-07-30T10:47:06.996Z,100747.94
2022-07-30T10:50:15.822Z,100756.22
2022-07-30T10:53:40.120Z,100752.22
2022-07-30T10:56:41.760Z,100749.25
2022-07-30T10:59:49.405Z,100749.50
2022-07-30T11:03:15.103Z,100748.81
2022-07-30T11:06:24.406Z,100749.13
2022-07-30T11:09:37.414Z,100743.25
2022-07-30T11:12:44.001Z,100745.19
2022-07-30T11:15:59.767Z,100742.78
2022-07-30T11:19:55.190Z,100744.69
2022-07-30T11:22:41.042Z,100746.09
2022-07-30T11:25:50.612Z,100747.44
2022-07-30T11:28:53.861Z,100747.06
2022-07-30T11:31:58.772Z,100744.50
2022-07-30T11:35:18.362Z,100747.72
2022-07-30T11:38:22.478Z,100743.09
2022-07-30T11:41:24.727Z,100742.34
2022-07-30T11:44:28.481Z,100748.19
2022-07-30T11:47:30.668Z,100756.59
2022-07-30T11:50:34.773Z,100747.38
2022-07-30T11:53:37.673Z,100748.94
2022-07-30T11:57:08.798Z,100747.75
2022-07-30T12:00:10.792Z,100753.00
2022-07-30T12:03:21.183Z,100756.28
2022-07-30T12:06:23.870Z,100758.72
2022-07-30T12:09:29.662Z,100758.06
2022-07-30T12:12:31.307Z,100753.63
2022-07-30T12:15:35.066Z,100749.88
2022-07-30T12:18:37.437Z,100759.91
2022-07-30T12:21:39.109Z,100748.44
2022-07-30T12:24:40.753Z,100750.94
2022-07-30T12:27:52.004Z,100751.72
2022-07-30T12:30:54.831Z,100752.88
2022-07-30T12:33:58.366Z,100748.34
2022-07-30T12:37:09.989Z,100740.75
2022-07-30T12:40:15.382Z,100737.56
2022-07-30T12:43:17.536Z,100740.28
2022-07-30T12:46:20.522Z,100726.38
2022-07-30T12:49:37.624Z,100730.25
2022-07-30T12:52:52.152Z,100727.06
2022-07-30T12:55:54.844Z,100724.59
2022-07-30T12:58:58.585Z,100722.41
2022-07-30T13:02:01.282Z,100726.38
2022-07-30T13:05:10.905Z,100714.97
2022-07-30T13:08:13.741Z,100712.69
2022-07-30T13:11:16.701Z,100716.72
2022-07-30T13:14:18.384Z,100715.47
2022-07-30T13:17:20.131Z,100724.59
2022-07-30T13:20:22.161Z,100723.28
2022-07-30T13:23:24.760Z,100720.78
2022-07-30T13:26:29.626Z,100721.47
2022-07-30T13:29:31.267Z,100723.84
2022-07-30T13:32:33.047Z,100711.41
2022-07-30T13:35:34.813Z,100724.31
2022-07-30T13:38:36.755Z,100724.38
2022-07-30T13:41:38.373Z,100718.16
2022-07-30T13:44:40.103Z,100715.88
2022-07-30T13:47:41.731Z,100723.31
2022-07-30T13:50:43.756Z,100711.97
2022-07-30T13:53:45.567Z,100718.75
2022-07-30T13:56:50.215Z,100714.50
2022-07-30T13:59:52.646Z,100712.81
2022-07-30T14:02:54.626Z,100716.09
2022-07-30T14:05:56.377Z,100719.84
2022-07-30T14:09:12.307Z,100719.91
2022-07-30T14:12:14.055Z,100716.19
2022-07-30T14:15:17.893Z,100718.25
2022-07-30T14:18:19.754Z,100716.75
2022-07-30T14:21:21.443Z,100711.06
2022-07-30T14:24:23.633Z,100704.59
2022-07-30T14:27:25.218Z,100710.75
2022-07-30T14:30:26.890Z,100705.63
2022-07-30T14:33:28.491Z,100709.06
2022-07-30T14:36:30.422Z,100706.16
2022-07-30T14:39:32.089Z,100710.56
2022-07-30T14:42:33.759Z,100714.16
2022-07-30T14:45:36.605Z,100715.88
2022-07-30T14:48:38.286Z,100716.50
2022-07-30T14:51:39.901Z,100716.50
2022-07-30T14:54:41.544Z,100722.16
2022-07-30T14:57:43.552Z,100716.34
2022-07-30T15:00:48.870Z,100726.34
2022-07-30T15:03:50.768Z,100730.91
2022-07-30T15:06:52.463Z,100728.63
2022-07-30T15:09:54.094Z,100722.81
2022-07-30T15:12:55.711Z,100724.13
2022-07-30T15:15:57.385Z,100723.75
2022-07-30T15:18:59.279Z,100727.81
2022-07-30T15:22:02.497Z,100723.03
2022-07-30T15:25:05.995Z,100718.88
2022-07-30T15:28:08.957Z,100717.66
2022-07-30T15:31:10.619Z,100714.66
2022-07-30T15:34:12.660Z,100709.09
2022-07-30T15:37:15.553Z,100703.53
2022-07-30T15:40:17.266Z,100704.72
2022-07-30T15:43:18.940Z,100699.00
2022-07-30T15:46:20.604Z,100695.78
2022-07-30T15:49:22.472Z,100694.75
2022-07-30T15:52:24.248Z,100689.28
2022-07-30T15:55:25.968Z,100697.56
2022-07-30T15:58:28.005Z,100689.88
2022-07-30T16:01:29.842Z,100691.47
2022-07-30T16:04:33.037Z,100690.41
2022-07-30T16:07:34.854Z,100685.59
2022-07-30T16:10:36.491Z,100683.16
2022-07-30T16:13:38.458Z,100686.91
2022-07-30T16:16:40.134Z,100694.66
2022-07-30T16:19:45.093Z,100698.00
2022-07-30T16:22:47.440Z,100696.03
2022-07-30T16:25:49.116Z,100686.88
2022-07-30T16:28:51.051Z,100691.22
2022-07-30T16:31:52.715Z,100690.97
2022-07-30T16:34:54.407Z,100691.34
2022-07-30T16:37:57.934Z,100693.44
2022-07-30T16:40:59.599Z,100694.66
2022-07-30T16:44:01.219Z,100699.84
2022-07-30T16:47:02.982Z,100700.16
2022-07-30T16:50:05.107Z,100695.00
2022-07-30T16:53:13.525Z,100700.81
2022-07-30T16:56:17.235Z,100701.03
2022-07-30T16:59:20.069Z,100698.84
2022-07-30T17:02:23.462Z,100699.59
2022-07-30T17:05:25.117Z,100702.03
2022-07-30T17:08:26.874Z,100698.34
2022-07-30T17:11:46.351Z,100702.88
2022-07-30T17:14:49.802Z,100700.88
2022-07-30T17:17:51.762Z,100703.22
2022-07-30T17:20:53.674Z,100709.16
2022-07-30T17:23:55.321Z,100706.00
2022-07-30T17:26:57.371Z,100711.72
2022-07-30T17:30:01.080Z,100715.53
2022-07-30T17:33:04.878Z,100710.97
2022-07-30T17:36:08.466Z,100721.59
2022-07-30T17:39:10.106Z,100725.41
2022-07-30T17:42:31.715Z,100720.63
2022-07-30T17:45:34.865Z,100720.31
2022-07-30T17:48:36.549Z,100718.66
2022-07-30T17:51:38.284Z,100721.91
2022-07-30T17:54:39.969Z,100722.66
2022-07-30T17:57:41.542Z,100727.28
2022-07-30T18:00:43.514Z,100728.38
2022-07-30T18:03:45.334Z,100727.56
2022-07-30T18:06:47.034Z,100723.00
2022-07-30T18:09:48.652Z,100745.78
2022-07-30T18:12:50.381Z,100763.19
2022-07-30T18:15:53.888Z,100777.19
2022-07-30T18:18:55.468Z,100783.16
2022-07-30T18:21:57.108Z,100790.94
2022-07-30T18:25:00.684Z,100770.84
2022-07-30T18:28:03.857Z,100775.50
2022-07-30T18:31:06.134Z,100762.34
2022-07-30T18:34:07.962Z,100767.03
2022-07-30T18:37:09.642Z,100763.09
2022-07-30T18:40:13.496Z,100761.91
2022-07-30T18:43:15.156Z,100760.50
2022-07-30T18:46:16.925Z,100762.16
2022-07-30T18:49:35.971Z,100750.75
2022-07-30T18:52:39.161Z,100752.06
2022-07-30T18:55:41.246Z,100758.09
2022-07-30T18:58:42.889Z,100752.75
2022-07-30T19:01:44.532Z,100755.09
2022-07-30T19:04:46.207Z,100757.28
2022-07-30T19:07:57.413Z,100764.44
2022-07-30T19:11:01.093Z,100774.47
2022-07-30T19:14:02.906Z,100792.34
2022-07-30T19:17:06.748Z,100793.00
2022-07-30T19:20:15.685Z,100807.75
2022-07-30T19:23:18.604Z,100814.56
2022-07-30T19:26:20.356Z,100815.03
2022-07-30T19:29:22.152Z,100820.00
2022-07-30T19:32:24.813Z,100815.53
2022-07-30T19:35:26.490Z,100814.19
2022-07-30T19:38:28.415Z,100815.81
2022-07-30T19:41:30.247Z,100816.28
2022-07-30T19:44:34.343Z,100819.38
2022-07-30T19:47:39.701Z,100825.78
2022-07-30T19:50:46.256Z,100826.97
2022-07-30T19:53:48.007Z,100827.47
2022-07-30T19:56:49.687Z,100816.75
2022-07-30T19:59:59.963Z,100827.81
2022-07-30T20:03:14.472Z,100823.22
2022-07-30T20:06:18.415Z,100824.44
2022-07-30T20:09:20.307Z,100816.94
2022-07-30T20:12:24.359Z,100819.47
2022-07-30T20:15:26.727Z,100825.56
2022-07-30T20:18:32.018Z,100818.56
2022-07-30T20:21:55.939Z,100814.31
2022-07-30T20:24:56.516Z,100814.16
2022-07-30T20:27:58.557Z,100821.16
2022-07-30T20:31:00.634Z,100815.78
2022-07-30T20:34:02.852Z,100820.50
2022-07-30T20:37:17.784Z,100828.78
2022-07-30T20:40:26.712Z,100832.00
2022-07-30T20:43:28.973Z,100830.13
2022-07-30T20:46:31.954Z,100844.03
2022-07-30T20:49:35.787Z,100843.16
2022-07-30T20:52:41.015Z,100850.84
2022-07-30T20:55:48.514Z,100856.91
2022-07-30T20:58:50.945Z,100860.06
2022-07-30T21:01:53.812Z,100856.66
2022-07-30T21:04:59.839Z,100855.28
2022-07-30T21:08:01.606Z,100858.84
2022-07-30T21:11:03.959Z,100854.72
2022-07-30T21:14:06.950Z,100864.72
2022-07-30T21:17:10.403Z,100858.19
2022-07-30T21:20:12.358Z,100867.19
2022-07-30T21:23:22.275Z,100864.78
2022-07-30T21:26:24.108Z,100865.94
2022-07-30T21:29:27.592Z,100865.41
2022-07-30T21:32:29.303Z,100871.28
2022-07-30T21:35:31.747Z,100869.75
2022-07-30T21:38:34.586Z,100871.34
2022-07-30T21:41:39.919Z,100868.81
2022-07-30T21:44:42.434Z,100869.25
2022-07-30T21:47:48.015Z,100870.72
2022-07-30T21:50:49.784Z,100874.59
2022-07-30T21:53:51.419Z,100869.03
2022-07-30T21:56:53.534Z,100867.66
2022-07-30T21:59:59.536Z,100874.06
2022-07-30T22:03:01.607Z,100866.84
2022-07-30T22:06:17.618Z,100871.53
2022-07-30T22:09:33.277Z,100875.53
2022-07-30T22:12:35.744Z,100882.00
2022-07-30T22:15:37.638Z,100880.69
2022-07-30T22:18:40.297Z,100874.28
2022-07-30T22:21:46.909Z,100875.59
2022-07-30T22:24:49.266Z,100871.06
2022-07-30T22:27:56.617Z,100877.06
2022-07-30T22:30:58.782Z,100868.53
2022-07-30T22:34:00.407Z,100873.53
2022-07-30T22:37:02.247Z,100858.84
2022-07-30T22:40:06.604Z,100873.66
2022-07-30T22:43:13.230Z,100873.97
2022-07-30T22:46:30.783Z,100872.28
2022-07-30T22:49:45.998Z,100867.56
2022-07-30T22:52:58.503Z,100870.41
2022-07-30T22:56:14.251Z,100872.28
2022-07-30T22:59:17.720Z,100869.84
2022-07-30T23:02:42.534Z,100869.69
2022-07-30T23:05:56.631Z,100861.72
2022-07-30T23:08:59.695Z,100852.88
2022-07-30T23:12:01.408Z,100853.00
2022-07-30T23:15:04.666Z,100848.44
2022-07-30T23:18:06.362Z,100838.63
2022-07-30T23:21:08.007Z,100843.03
2022-07-30T23:24:12.299Z,100833.06
2022-07-30T23:27:19.318Z,100834.03
2022-07-30T23:30:20.983Z,100832.47
2022-07-30T23:33:22.576Z,100832.78
2022-07-30T23:36:24.261Z,100830.91
2022-07-30T23:39:25.862Z,100835.63
2022-07-30T23:42:27.437Z,100831.06
2022-07-30T23:45:29.812Z,100822.06
2022-07-30T23:48:31.692Z,100821.22
2022-07-30T23:51:33.715Z,100820.25
2022-07-30T23:54:35.490Z,100829.22
2022-07-30T23:57:39.338Z,100828.19
